CW8081 Thessaloniki GR current weather conditions

sailwx.info

Wind from 193 at 2 knots gusting 5

Air temperature 10.6° C
Dewpoint 8.0° C

Last reported at 2014-Oct-24 06:41 UTC.
Time now 2014-Oct-24 07:10 UTC

Location: N 40°34' E 022°58'.
View on Google Maps.

See reports from other nearby stations

  
Tides and Currents Weather Stations Pressure Air Temp Water Temp Dewpoint Dewpoint Depression Visibility Wind Speed Wind Dir Waves Ship Positions
date/time (UTC)wind fromknots sea level pressurealtimeterstation pressurevisibilityair tempwater tempwave heightnotes
2014-Oct-24 06:41 193 2 gusting 5 10.6
2014-Oct-24 06:31 143 10.0
2014-Oct-24 06:11 142 10.0
2014-Oct-24 06:01 142 9.4
2014-Oct-24 05:41 142 9.4
2014-Oct-24 05:31 142 9.4
2014-Oct-24 05:11 143 9.4
2014-Oct-24 05:01 143 0 gusting 4 9.4
2014-Oct-24 04:41 111 0 gusting 2 9.4
2014-Oct-24 04:31 105 9.4
2014-Oct-24 04:10 109 0 gusting 2 9.4
2014-Oct-24 04:01 096 9.4
2014-Oct-24 03:41 096 9.4
2014-Oct-24 03:31 096 8.9
2014-Oct-24 03:11 096 1 gusting 2 8.9
2014-Oct-24 03:01 086 8.9
2014-Oct-24 02:41 086 8.3
2014-Oct-24 02:31 086 8.3
2014-Oct-24 02:11 105 8.3
2014-Oct-24 02:01 105 8.3
2014-Oct-24 01:41 103 7.8
2014-Oct-24 01:31 103 7.8
2014-Oct-24 01:11 103 7.8
2014-Oct-24 01:01 103 0 gusting 2 7.8
2014-Oct-24 00:41 067 0 gusting 1 7.8
2014-Oct-24 00:31 065 7.8
2014-Oct-24 00:11 057 7.8
2014-Oct-24 00:01 057 8.3
2014-Oct-23 23:40 057 0 gusting 2 8.3
2014-Oct-23 23:31 057 1 gusting 4 8.3
2014-Oct-23 23:11 139 8.3
2014-Oct-23 23:01 146 8.3
2014-Oct-23 22:41 044 8.3
2014-Oct-23 22:31 044 8.9
2014-Oct-23 22:11 044 8.9
2014-Oct-23 22:01 044 1 gusting 2 8.9
2014-Oct-23 21:41 040 9.4
2014-Oct-23 21:31 040 9.4
2014-Oct-23 21:11 040 0 gusting 2 10.0
2014-Oct-23 21:01 039 10.0
2014-Oct-23 20:41 038 10.0
2014-Oct-23 20:31 038 10.6
2014-Oct-23 20:11 026 10.6
2014-Oct-23 20:01 026 10.6
2014-Oct-23 19:41 026 4 gusting 8 10.6
2014-Oct-23 19:31 028 6 gusting 8 11.1
2014-Oct-23 19:11 017 2 gusting 5 11.1
2014-Oct-23 19:01 009 3 gusting 6 11.1
2014-Oct-23 18:31 009 5 gusting 10 11.7
2014-Oct-23 18:11 334 5 gusting 10 11.7
2014-Oct-23 18:01 348 6 gusting 10 11.7
2014-Oct-23 17:41 11.7
2014-Oct-23 17:31 019 4 gusting 6 11.7
2014-Oct-23 17:11 032 4 gusting 5 12.2
2014-Oct-23 17:01 024 1 gusting 4 12.2
2014-Oct-23 16:41 019 12.2
2014-Oct-23 16:31 019 12.2
2014-Oct-23 16:11 019 12.2
2014-Oct-23 16:01 019 12.2
2014-Oct-23 15:41 025 6 gusting 8 12.2
2014-Oct-23 15:31 031 6 gusting 8 12.2
2014-Oct-23 15:11 013 5 gusting 7 12.2
2014-Oct-23 15:01 340 5 gusting 8 12.2
2014-Oct-23 14:41 010 6 gusting 13 12.8
2014-Oct-23 14:31 004 10 gusting 15 13.3
2014-Oct-23 14:11 342 7 gusting 13 13.3
2014-Oct-23 14:01 319 8 gusting 17 13.9
2014-Oct-23 13:41 343 10 gusting 17 14.4
2014-Oct-23 13:31 314 6 gusting 13 14.4
2014-Oct-23 13:11 350 5 gusting 13 15.0
2014-Oct-23 13:01 344 6 gusting 13 15.0
2014-Oct-23 12:41 351 6 gusting 13 15.0
2014-Oct-23 12:31 340 10 gusting 15 15.0
2014-Oct-23 12:11 323 6 gusting 11 15.0
2014-Oct-23 12:01 331 6 gusting 18 15.0
2014-Oct-23 11:40 355 10 gusting 17 15.0
2014-Oct-23 11:31 321 7 gusting 17 15.0
2014-Oct-23 11:11 356 6 gusting 15 13.3
2014-Oct-23 11:01 005 7 gusting 13 12.8
2014-Oct-23 10:41 304 5 gusting 11 12.2
2014-Oct-23 10:30 335 7 gusting 11 12.2
2014-Oct-23 10:10 326 6 gusting 11 11.7
2014-Oct-23 10:01 347 6 gusting 11 11.7
2014-Oct-23 09:41 013 6 gusting 12 11.7
2014-Oct-23 09:31 346 7 gusting 18 11.1
2014-Oct-23 09:11 019 7 gusting 17 11.1
2014-Oct-23 09:01 355 7 gusting 15 11.1
2014-Oct-23 08:40 340 6 gusting 13 11.1
2014-Oct-23 08:30 342 6 gusting 13 11.1
2014-Oct-23 08:11 10.6
2014-Oct-23 08:01 010 8 gusting 17 10.6
2014-Oct-23 07:40 10.6
2014-Oct-23 07:30 005 7 gusting 18 10.6
2014-Oct-23 07:11 005 8 gusting 17 11.1
2014-Oct-23 07:01 315 9 gusting 20 10.6
2014-Oct-23 06:11 277 15 gusting 27 16.7
2014-Oct-23 06:01 027 2 gusting 11 17.8
2014-Oct-23 05:41 153 0 gusting 6 18.9
2014-Oct-23 05:30 122 1 gusting 7 18.9
2014-Oct-23 05:11 086 6 gusting 10 18.9
2014-Oct-23 05:01 144 1 gusting 10 18.9
2014-Oct-23 04:40 117 4 gusting 8 18.9
2014-Oct-23 04:31 145 4 gusting 8 18.9
2014-Oct-23 04:10 131 4 gusting 10 18.9
2014-Oct-23 04:01 155 2 gusting 12 18.9
2014-Oct-23 03:40 127 1 gusting 5 18.3
2014-Oct-23 03:31 074 0 gusting 6 18.3
2014-Oct-23 03:11 143 2 gusting 7 18.9
2014-Oct-23 03:01 146 2 gusting 8 18.9
2014-Oct-23 02:40 154 0 gusting 7 18.9
2014-Oct-23 02:31 153 4 gusting 8 18.9
2014-Oct-23 02:10 111 1 gusting 5 18.9
2014-Oct-23 02:01 134 0 gusting 6 18.9
2014-Oct-23 01:41 153 1 gusting 5 18.9
2014-Oct-23 01:30 082 1 gusting 8 18.9
2014-Oct-23 01:11 148 4 gusting 10 19.4
2014-Oct-23 01:01 144 5 gusting 17 20.0
2014-Oct-23 00:40 145 5 gusting 12 20.6
2014-Oct-23 00:30 138 6 gusting 13 20.6
2014-Oct-23 00:11 122 5 gusting 13 21.1
2014-Oct-23 00:01 130 7 gusting 18 21.1
2014-Oct-22 23:40 141 6 gusting 18 21.1
2014-Oct-22 23:31 106 5 gusting 15 21.1
2014-Oct-22 23:10 115 7 gusting 19 21.1
2014-Oct-22 23:01 150 7 gusting 15 21.1
2014-Oct-22 22:41 135 7 gusting 17 21.1
2014-Oct-22 22:30 122 5 gusting 13 21.1
2014-Oct-22 22:11 134 6 gusting 13 21.1
2014-Oct-22 22:01 150 5 gusting 15 21.1
2014-Oct-22 21:40 147 6 gusting 13 20.6
2014-Oct-22 21:31 132 6 gusting 13 20.6
2014-Oct-22 21:11 114 4 gusting 7 20.6
2014-Oct-22 21:01 138 4 gusting 11 20.6
2014-Oct-22 20:41 139 4 gusting 10 20.6
2014-Oct-22 20:31 133 5 gusting 12 20.6
2014-Oct-22 20:11 161 5 gusting 12 20.6
2014-Oct-22 20:01 111 4 gusting 13 20.6
2014-Oct-22 19:41 137 6 gusting 12 20.6
2014-Oct-22 19:31 161 4 gusting 12 20.6
2014-Oct-22 19:11 127 6 gusting 11 20.6
2014-Oct-22 19:01 157 4 gusting 15 20.0
2014-Oct-22 18:41 152 4 gusting 10 20.0
2014-Oct-22 18:31 126 5 gusting 10 20.0
2014-Oct-22 18:11 130 4 gusting 7 20.0
2014-Oct-22 18:01 148 3 gusting 11 19.4
2014-Oct-22 17:41 140 2 gusting 6 19.4
2014-Oct-22 17:31 138 1 gusting 10 19.4
2014-Oct-22 17:11 136 1 gusting 8 19.4
2014-Oct-22 17:01 142 19.4
2014-Oct-22 16:41 148 2 gusting 6 19.4
2014-Oct-22 16:31 155 2 gusting 7 19.4
2014-Oct-22 16:10 173 1 gusting 7 20.0
2014-Oct-22 16:01 148 3 gusting 7 20.0
2014-Oct-22 15:40 145 5 gusting 10 20.6
2014-Oct-22 15:31 163 5 gusting 8 20.6
2014-Oct-22 15:11 156 3 gusting 10 21.1
2014-Oct-22 15:01 170 4 gusting 8 21.1
2014-Oct-22 14:41 198 4 gusting 11 21.7
2014-Oct-22 14:31 167 4 gusting 10 21.7
2014-Oct-22 14:11 205 5 gusting 10 22.2
2014-Oct-22 14:01 190 5 gusting 10 22.2
2014-Oct-22 13:40 202 4 gusting 7 22.2
2014-Oct-22 13:31 252 21.7
2014-Oct-22 13:11 252 4 gusting 7 21.7
2014-Oct-22 13:01 267 4 gusting 7 21.7
2014-Oct-22 12:41 244 4 gusting 7 21.7
2014-Oct-22 12:31 231 2 gusting 7 21.7
2014-Oct-22 12:11 233 4 gusting 6 21.7
2014-Oct-22 12:01 249 21.7
2014-Oct-22 11:41 211 21.1
2014-Oct-22 11:30 259 20.6
2014-Oct-22 11:10 223 20.6
2014-Oct-22 11:01 236 1 gusting 6 20.6
2014-Oct-22 10:41 271 4 gusting 6 20.0
2014-Oct-22 10:31 243 3 gusting 6 20.0
2014-Oct-22 10:11 247 4 gusting 6 20.0
2014-Oct-22 10:01 244 4 gusting 7 19.4
2014-Oct-22 09:41 246 4 gusting 6 18.9
2014-Oct-22 09:31 251 4 gusting 6 18.9
2014-Oct-22 09:11 213 4 gusting 6 18.3
2014-Oct-22 09:01 246 2 gusting 7 18.3
2014-Oct-22 08:41 221 2 gusting 5 18.3
2014-Oct-22 08:31 268 2 gusting 6 17.8
2014-Oct-22 08:10 250 1 gusting 5 18.3
2014-Oct-22 08:01 229 17.8
2014-Oct-22 07:40 223 16.1
2014-Oct-22 07:31 208 0 gusting 4 15.0
2014-Oct-22 07:11 206 15.0
2014-Oct-22 07:01 206 1 gusting 5 15.0